This is the latest recevied weather packets stored in our database for station/object SP9MLI-1. If no packets are shown the sender has not sent any weather packets the latest 10 day(s).
| Time | Temp. | Humidity | Pressure | Rain* | Wind** | Luminosity | Snow |
|---|---|---|---|---|---|---|---|
| 1777556292 | 16.67° C | 48% | 1029.2 hPa | 0 mm | - | - | - |
| 1777555430 | 17.22° C | 54% | 1029.2 hPa | 0 mm | - | - | - |
| 1777554492 | 17.78° C | 52% | 1029.2 hPa | 0 mm | - | - | - |
| 1777553593 | 17.22° C | 57% | 1029.2 hPa | 0 mm | - | - | - |
| 1777552692 | 16.67° C | 58% | 1029.2 hPa | 0 mm | - | - | - |
| 1777547293 | 13.33° C | 59% | 1029.2 hPa | 0 mm | - | - | - |
| 1777546393 | 13.33° C | 59% | 1029.2 hPa | 0 mm | - | - | - |
| 1777545493 | 13.33° C | 59% | 1029.2 hPa | 0 mm | - | - | - |
| 1777544593 | 13.33° C | 59% | 1029.2 hPa | 0 mm | - | - | - |
| 1777543693 | 12.78° C | 59% | 1028.9 hPa | 0 mm | - | - | - |
| 1777542793 | 12.78° C | 60% | 1029.2 hPa | 0 mm | - | - | - |
| 1777541893 | 12.78° C | 59% | 1029.2 hPa | 0 mm | - | - | - |
| 1777540993 | 13.33° C | 60% | 1029.6 hPa | 0 mm | - | - | - |
| 1777540093 | 13.89° C | 58% | 1029.9 hPa | 0 mm | - | - | - |
| 1777539193 | 13.89° C | 56% | 1029.9 hPa | 0 mm | - | - | - |
| 1777538293 | 14.44° C | 55% | 1029.6 hPa | 0 mm | - | - | - |
| 1777537393 | 15° C | 54% | 1029.9 hPa | 0 mm | - | - | - |
| 1777536493 | 14.44° C | 52% | 1029.9 hPa | 0 mm | - | - | - |
| 1777535596 | 13.33° C | 51% | 1029.6 hPa | 0 mm | - | - | - |
| 1777534693 | 12.22° C | 54% | 1029.2 hPa | 0 mm | - | - | - |
| 1777533793 | 11.67° C | 54% | 1029.2 hPa | 0 mm | - | - | - |
| 1777532893 | 11.11° C | 56% | 1029.2 hPa | 0 mm | - | - | - |
| 1777531994 | 10° C | 57% | 1029.2 hPa | 0 mm | - | - | - |
| 1777531099 | 9.44° C | 59% | 1028.9 hPa | 0 mm | - | - | - |
| 1777530193 | 4.44° C | 75% | 1027.5 hPa | 0 mm | - | - | - |
* Rain latest hour (hover to see other rain measurements)
** Current wind speed in m/s (hover to see current wind gust speed)